Time,TemperatureF,DewpointF,PressureIn,WindDirection,WindDirectionDegrees,WindSpeedMPH,WindSpeedGustMPH,Humidity,HourlyPrecipIn,Conditions,Clouds,dailyrainin,SoftwareType,DateUTC
2013-01-18 00:00:00,40.8,4.4,30.15,WSW,248,0.0,3.0,21,0.00,,---,0.00,VWS V13.01,2013-01-18 08:00:00,
2013-01-18 00:30:00,39.1,3.4,30.17,WSW,248,0.0,0.0,23,0.00,,---,0.00,VWS V13.01,2013-01-18 08:30:00,
2013-01-18 01:00:00,36.8,3.3,30.16,WSW,248,0.0,0.0,24,0.00,,---,0.00,VWS V13.01,2013-01-18 09:00:00,
2013-01-18 01:30:00,36.7,3.9,30.17,WSW,248,0.0,0.0,24,0.00,,---,0.00,VWS V13.01,2013-01-18 09:30:00,
2013-01-18 02:00:00,35.4,3.8,30.18,WSW,248,0.0,0.0,26,0.00,,---,0.00,VWS V13.01,2013-01-18 10:00:00,
2013-01-18 02:30:00,33.4,6.2,30.17,SSE,158,0.0,3.0,28,0.00,,---,0.00,VWS V13.01,2013-01-18 10:30:00,
2013-01-18 03:00:00,30.6,5.3,30.18,SSE,158,0.0,2.0,35,0.00,,---,0.00,VWS V13.01,2013-01-18 11:00:00,
2013-01-18 03:30:00,28.2,7.4,30.17,SSE,158,0.0,1.0,37,0.00,,---,0.00,VWS V13.01,2013-01-18 11:30:00,
2013-01-18 04:00:00,27.5,9.1,30.16,SSE,158,0.0,0.0,42,0.00,,---,0.00,VWS V13.01,2013-01-18 12:00:00,
2013-01-18 04:30:00,28.8,8.5,30.16,SSE,158,0.0,2.0,43,0.00,,---,0.00,VWS V13.01,2013-01-18 12:30:00,
2013-01-18 05:00:00,28.7,6.4,30.17,SSE,158,0.0,0.0,42,0.00,,---,0.00,VWS V13.01,2013-01-18 13:00:00,
2013-01-18 05:30:00,26.9,6.3,30.16,SSE,158,0.0,0.0,41,0.00,,---,0.00,VWS V13.01,2013-01-18 13:30:00,
2013-01-18 06:00:00,25.1,6.1,30.15,SSE,158,0.0,0.0,44,0.00,,---,0.00,VWS V13.01,2013-01-18 14:00:00,
2013-01-18 06:30:00,24.9,6.4,30.15,SSE,158,0.0,0.0,44,0.00,,---,0.00,VWS V13.01,2013-01-18 14:30:00,
2013-01-18 07:00:00,24.7,4.9,30.17,SSE,158,0.0,1.0,45,0.00,,---,0.00,VWS V13.01,2013-01-18 15:00:00,
2013-01-18 07:30:00,24.2,3.6,30.16,SSE,158,0.0,2.0,43,0.00,,---,0.00,VWS V13.01,2013-01-18 15:30:00,
2013-01-18 08:00:00,23.9,2.4,30.18,SSE,158,0.0,0.0,41,0.00,,---,0.00,VWS V13.01,2013-01-18 16:00:00,
2013-01-18 08:30:00,23.7,0.8,30.18,SSE,158,0.0,0.0,39,0.00,,---,0.00,VWS V13.01,2013-01-18 16:30:00,
2013-01-18 09:00:00,23.8,1.0,30.21,SSE,158,0.0,0.0,36,0.00,,---,0.00,VWS V13.01,2013-01-18 17:00:00,
2013-01-18 09:30:00,26.2,3.8,30.20,SSE,158,0.0,3.0,33,0.00,,---,0.00,VWS V13.01,2013-01-18 17:30:00,
2013-01-18 10:00:00,31.7,5.1,30.20,SSE,158,0.0,3.0,30,0.00,,---,0.00,VWS V13.01,2013-01-18 18:00:00,
2013-01-18 10:30:00,34.0,5.6,30.21,ESE,112,1.0,3.0,29,0.00,,---,0.00,VWS V13.01,2013-01-18 18:30:00,
2013-01-18 11:00:00,36.4,6.3,30.22,ESE,112,1.0,3.0,27,0.00,,---,0.00,VWS V13.01,2013-01-18 19:00:00,
2013-01-18 11:30:00,40.2,8.6,30.23,ESE,112,1.0,3.0,24,0.00,,---,0.00,VWS V13.01,2013-01-18 19:30:00,
2013-01-18 12:00:00,45.2,9.9,30.19,ESE,112,1.0,3.0,22,0.00,,---,0.00,VWS V13.01,2013-01-18 20:00:00,
2013-01-18 12:30:00,49.3,11.3,30.17,ESE,112,2.0,6.0,20,0.00,,---,0.00,VWS V13.01,2013-01-18 20:30:00,
2013-01-18 13:00:00,52.3,10.4,30.15,NE,45,2.0,6.0,19,0.00,,---,0.00,VWS V13.01,2013-01-18 21:00:00,
2013-01-18 13:30:00,54.2,10.3,30.13,NE,45,3.0,8.0,17,0.00,,---,0.00,VWS V13.01,2013-01-18 21:30:00,
2013-01-18 14:00:00,57.6,10.5,30.11,NNE,22,4.0,9.0,15,0.00,,---,0.00,VWS V13.01,2013-01-18 22:00:00,
2013-01-18 14:30:00,59.8,9.8,30.10,NNW,338,6.0,12.0,14,0.00,,---,0.00,VWS V13.01,2013-01-18 22:30:00,
2013-01-18 15:00:00,60.9,10.1,30.10,NNW,338,5.0,11.0,13,0.00,,---,0.00,VWS V13.01,2013-01-18 23:00:00,
2013-01-18 15:30:00,61.3,11.0,30.10,NNE,22,5.0,13.0,13,0.00,,---,0.00,VWS V13.01,2013-01-18 23:30:00,
2013-01-18 16:00:00,62.5,10.8,30.09,NNE,22,5.0,12.0,13,0.00,,---,0.00,VWS V13.01,2013-01-19 00:00:00,
2013-01-18 16:30:00,62.2,8.8,30.08,NNE,22,5.0,12.0,13,0.00,,---,0.00,VWS V13.01,2013-01-19 00:30:00,
2013-01-18 17:00:00,62.0,10.4,30.09,North,0,4.0,9.0,12,0.00,,---,0.00,VWS V13.01,2013-01-19 01:00:00,
2013-01-18 17:30:00,61.7,10.1,30.10,North,0,4.0,8.0,13,0.00,,---,0.00,VWS V13.01,2013-01-19 01:30:00,
2013-01-18 18:00:00,61.4,10.9,30.11,North,0,2.0,5.0,13,0.00,,---,0.00,VWS V13.01,2013-01-19 02:00:00,
2013-01-18 18:30:00,60.2,10.1,30.11,NNW,338,1.0,4.0,14,0.00,,---,0.00,VWS V13.01,2013-01-19 02:30:00,
2013-01-18 19:00:00,57.3,9.2,30.09,NNW,338,3.0,6.0,15,0.00,,---,0.00,VWS V13.01,2013-01-19 03:00:00,
2013-01-18 19:30:00,54.5,8.3,30.10,NNW,338,4.0,8.0,16,0.00,,---,0.00,VWS V13.01,2013-01-19 03:30:00,
2013-01-18 20:00:00,51.7,8.9,30.12,NNW,338,3.0,7.0,17,0.00,,---,0.00,VWS V13.01,2013-01-19 04:00:00,
2013-01-18 20:30:00,50.9,8.6,30.12,West,270,1.0,4.0,18,0.00,,---,0.00,VWS V13.01,2013-01-19 04:30:00,
2013-01-18 21:00:00,49.1,6.0,30.12,West,270,1.0,5.0,19,0.00,,---,0.00,VWS V13.01,2013-01-19 05:00:00,
2013-01-18 21:30:00,47.4,5.5,30.13,WNW,292,1.0,5.0,18,0.00,,---,0.00,VWS V13.01,2013-01-19 05:30:00,
2013-01-18 22:00:00,46.8,4.9,30.12,SSW,202,1.0,4.0,18,0.00,,---,0.00,VWS V13.01,2013-01-19 06:00:00,
2013-01-18 22:30:00,44.6,3.3,30.14,SE,135,0.0,4.0,19,0.00,,---,0.00,VWS V13.01,2013-01-19 06:30:00,
2013-01-18 23:00:00,41.3,3.2,30.16,SE,135,0.0,3.0,20,0.00,,---,0.00,VWS V13.01,2013-01-19 07:00:00,
2013-01-18 23:30:00,40.0,2.6,30.16,SE,135,0.0,3.0,21,0.00,,---,0.00,VWS V13.01,2013-01-19 07:30:00,